sensor_id;sensor_type;location;lat;lon;timestamp;P1;durP1;ratioP1;P2;durP2;ratioP2
12232;SDS011;6179;51.748;8.728;2024-01-15T00:05:00;32.37;;;11.17;;
12232;SDS011;6179;51.748;8.728;2024-01-15T00:11:01;21.27;;;8.50;;
12232;SDS011;6179;51.748;8.728;2024-01-15T00:17:02;26.23;;;11.13;;
12232;SDS011;6179;51.748;8.728;2024-01-15T00:23:03;23.53;;;11.53;;
12232;SDS011;6179;51.748;8.728;2024-01-15T00:29:04;19.10;;;9.77;;
12232;SDS011;6179;51.748;8.728;2024-01-15T00:35:06;24.40;;;9.60;;
12232;SDS011;6179;51.748;8.728;2024-01-15T00:41:08;22.37;;;11.47;;
12232;SDS011;6179;51.748;8.728;2024-01-15T00:47:08;31.40;;;10.57;;
12232;SDS011;6179;51.748;8.728;2024-01-15T00:53:09;25.03;;;10.60;;
12232;SDS011;6179;51.748;8.728;2024-01-15T00:59:10;15.87;;;7.37;;
12232;SDS011;6179;51.748;8.728;2024-01-15T01:05:14;21.30;;;8.33;;
12232;SDS011;6179;51.748;8.728;2024-01-15T01:11:15;25.40;;;9.60;;
12232;SDS011;6179;51.748;8.728;2024-01-15T01:17:16;18.67;;;9.33;;
12232;SDS011;6179;51.748;8.728;2024-01-15T01:23:17;24.27;;;8.90;;
12232;SDS011;6179;51.748;8.728;2024-01-15T01:29:18;24.83;;;9.33;;
12232;SDS011;6179;51.748;8.728;2024-01-15T01:35:19;21.60;;;9.07;;
12232;SDS011;6179;51.748;8.728;2024-01-15T01:41:19;41.27;;;9.97;;
12232;SDS011;6179;51.748;8.728;2024-01-15T01:47:20;15.83;;;8.43;;
12232;SDS011;6179;51.748;8.728;2024-01-15T01:53:21;16.37;;;6.93;;
12232;SDS011;6179;51.748;8.728;2024-01-15T01:59:23;29.60;;;10.77;;
12232;SDS011;6179;51.748;8.728;2024-01-15T02:05:27;30.30;;;11.00;;
12232;SDS011;6179;51.748;8.728;2024-01-15T02:11:31;20.77;;;11.33;;
12232;SDS011;6179;51.748;8.728;2024-01-15T02:17:32;23.10;;;9.60;;
12232;SDS011;6179;51.748;8.728;2024-01-15T02:23:32;16.40;;;8.33;;
12232;SDS011;6179;51.748;8.728;2024-01-15T02:29:33;26.03;;;8.90;;
12232;SDS011;6179;51.748;8.728;2024-01-15T02:35:35;22.10;;;10.10;;
12232;SDS011;6179;51.748;8.728;2024-01-15T02:41:36;17.97;;;8.20;;
12232;SDS011;6179;51.748;8.728;2024-01-15T02:47:37;32.87;;;9.57;;
12232;SDS011;6179;51.748;8.728;2024-01-15T02:53:38;23.83;;;7.70;;
12232;SDS011;6179;51.748;8.728;2024-01-15T02:59:39;20.00;;;8.57;;
12232;SDS011;6179;51.748;8.728;2024-01-15T03:05:40;19.80;;;9.50;;
12232;SDS011;6179;51.748;8.728;2024-01-15T03:11:40;31.83;;;10.90;;
12232;SDS011;6179;51.748;8.728;2024-01-15T03:17:41;31.23;;;9.10;;
12232;SDS011;6179;51.748;8.728;2024-01-15T03:23:43;28.70;;;10.10;;
12232;SDS011;6179;51.748;8.728;2024-01-15T03:29:43;41.33;;;13.53;;
12232;SDS011;6179;51.748;8.728;2024-01-15T03:35:44;24.40;;;10.20;;
12232;SDS011;6179;51.748;8.728;2024-01-15T03:41:45;25.53;;;10.93;;
12232;SDS011;6179;51.748;8.728;2024-01-15T03:47:46;24.43;;;9.87;;
12232;SDS011;6179;51.748;8.728;2024-01-15T03:53:46;16.03;;;7.37;;
12232;SDS011;6179;51.748;8.728;2024-01-15T03:59:47;26.73;;;8.60;;
12232;SDS011;6179;51.748;8.728;2024-01-15T04:05:48;25.30;;;7.33;;
12232;SDS011;6179;51.748;8.728;2024-01-15T04:11:48;16.53;;;9.63;;
12232;SDS011;6179;51.748;8.728;2024-01-15T04:17:49;26.57;;;9.20;;
12232;SDS011;6179;51.748;8.728;2024-01-15T04:23:50;18.43;;;9.80;;
12232;SDS011;6179;51.748;8.728;2024-01-15T04:29:51;22.80;;;8.80;;
12232;SDS011;6179;51.748;8.728;2024-01-15T04:35:52;25.70;;;8.30;;
12232;SDS011;6179;51.748;8.728;2024-01-15T04:41:53;19.00;;;8.70;;
12232;SDS011;6179;51.748;8.728;2024-01-15T04:47:54;30.83;;;9.73;;
12232;SDS011;6179;51.748;8.728;2024-01-15T04:53:58;14.43;;;6.43;;
12232;SDS011;6179;51.748;8.728;2024-01-15T04:59:59;21.83;;;8.03;;
12232;SDS011;6179;51.748;8.728;2024-01-15T05:05:59;12.97;;;6.40;;
12232;SDS011;6179;51.748;8.728;2024-01-15T05:12:00;22.30;;;8.40;;
12232;SDS011;6179;51.748;8.728;2024-01-15T05:18:01;20.37;;;8.37;;
12232;SDS011;6179;51.748;8.728;2024-01-15T05:24:02;15.77;;;7.13;;
12232;SDS011;6179;51.748;8.728;2024-01-15T05:30:03;17.67;;;8.80;;
12232;SDS011;6179;51.748;8.728;2024-01-15T05:36:04;21.20;;;8.50;;
12232;SDS011;6179;51.748;8.728;2024-01-15T05:42:06;15.03;;;6.63;;
12232;SDS011;6179;51.748;8.728;2024-01-15T05:48:06;23.53;;;9.67;;
12232;SDS011;6179;51.748;8.728;2024-01-15T05:54:07;19.10;;;10.43;;
12232;SDS011;6179;51.748;8.728;2024-01-15T06:00:08;29.50;;;7.20;;
12232;SDS011;6179;51.748;8.728;2024-01-15T06:06:10;14.70;;;7.97;;
12232;SDS011;6179;51.748;8.728;2024-01-15T06:12:10;26.23;;;10.77;;
12232;SDS011;6179;51.748;8.728;2024-01-15T06:18:11;25.87;;;8.80;;
12232;SDS011;6179;51.748;8.728;2024-01-15T06:24:12;30.53;;;8.53;;
12232;SDS011;6179;51.748;8.728;2024-01-15T06:30:15;23.73;;;8.50;;
12232;SDS011;6179;51.748;8.728;2024-01-15T06:36:16;20.53;;;9.57;;
12232;SDS011;6179;51.748;8.728;2024-01-15T06:42:16;14.57;;;7.83;;
12232;SDS011;6179;51.748;8.728;2024-01-15T06:48:17;49.07;;;12.63;;
12232;SDS011;6179;51.748;8.728;2024-01-15T06:54:18;19.40;;;7.80;;
12232;SDS011;6179;51.748;8.728;2024-01-15T07:00:19;21.67;;;10.10;;
12232;SDS011;6179;51.748;8.728;2024-01-15T07:06:20;32.63;;;10.60;;
12232;SDS011;6179;51.748;8.728;2024-01-15T07:12:20;13.73;;;8.53;;
12232;SDS011;6179;51.748;8.728;2024-01-15T07:18:21;22.20;;;7.20;;
12232;SDS011;6179;51.748;8.728;2024-01-15T07:24:23;23.73;;;10.17;;
12232;SDS011;6179;51.748;8.728;2024-01-15T07:30:24;15.67;;;7.27;;
12232;SDS011;6179;51.748;8.728;2024-01-15T07:36:24;18.20;;;9.77;;
12232;SDS011;6179;51.748;8.728;2024-01-15T07:42:25;13.67;;;7.90;;
12232;SDS011;6179;51.748;8.728;2024-01-15T07:48:27;21.93;;;9.10;;
12232;SDS011;6179;51.748;8.728;2024-01-15T07:54:27;32.77;;;9.77;;
12232;SDS011;6179;51.748;8.728;2024-01-15T08:00:28;23.77;;;10.10;;
12232;SDS011;6179;51.748;8.728;2024-01-15T08:06:29;17.57;;;7.73;;
12232;SDS011;6179;51.748;8.728;2024-01-15T08:12:30;34.10;;;11.10;;
12232;SDS011;6179;51.748;8.728;2024-01-15T08:18:30;26.80;;;13.03;;
12232;SDS011;6179;51.748;8.728;2024-01-15T08:24:31;24.90;;;10.43;;
12232;SDS011;6179;51.748;8.728;2024-01-15T08:30:32;20.30;;;10.20;;
12232;SDS011;6179;51.748;8.728;2024-01-15T08:36:33;17.53;;;11.90;;
12232;SDS011;6179;51.748;8.728;2024-01-15T08:42:35;18.47;;;8.50;;
12232;SDS011;6179;51.748;8.728;2024-01-15T08:48:36;17.97;;;10.27;;
12232;SDS011;6179;51.748;8.728;2024-01-15T08:54:37;19.67;;;8.90;;
12232;SDS011;6179;51.748;8.728;2024-01-15T09:00:37;23.37;;;9.33;;
12232;SDS011;6179;51.748;8.728;2024-01-15T09:06:38;17.07;;;9.07;;
12232;SDS011;6179;51.748;8.728;2024-01-15T09:12:39;19.20;;;10.20;;
12232;SDS011;6179;51.748;8.728;2024-01-15T09:18:40;22.70;;;10.40;;
12232;SDS011;6179;51.748;8.728;2024-01-15T09:24:41;27.70;;;10.17;;
12232;SDS011;6179;51.748;8.728;2024-01-15T09:30:42;27.53;;;11.20;;
12232;SDS011;6179;51.748;8.728;2024-01-15T09:36:42;26.17;;;11.70;;
12232;SDS011;6179;51.748;8.728;2024-01-15T09:42:43;17.77;;;9.50;;
12232;SDS011;6179;51.748;8.728;2024-01-15T09:48:46;24.07;;;9.67;;
12232;SDS011;6179;51.748;8.728;2024-01-15T09:54:47;27.00;;;10.50;;
12232;SDS011;6179;51.748;8.728;2024-01-15T10:00:49;18.87;;;9.80;;
12232;SDS011;6179;51.748;8.728;2024-01-15T10:06:52;17.20;;;7.70;;
12232;SDS011;6179;51.748;8.728;2024-01-15T10:12:55;12.90;;;6.23;;
12232;SDS011;6179;51.748;8.728;2024-01-15T10:18:58;10.63;;;6.37;;
12232;SDS011;6179;51.748;8.728;2024-01-15T10:24:59;16.73;;;8.10;;
12232;SDS011;6179;51.748;8.728;2024-01-15T10:31:00;11.67;;;6.80;;
12232;SDS011;6179;51.748;8.728;2024-01-15T10:37:02;7.90;;;4.37;;
12232;SDS011;6179;51.748;8.728;2024-01-15T10:43:03;10.70;;;7.33;;
12232;SDS011;6179;51.748;8.728;2024-01-15T10:49:04;6.60;;;4.43;;
12232;SDS011;6179;51.748;8.728;2024-01-15T10:55:09;7.03;;;4.13;;
12232;SDS011;6179;51.748;8.728;2024-01-15T11:01:11;7.73;;;3.63;;
12232;SDS011;6179;51.748;8.728;2024-01-15T11:07:13;10.30;;;3.97;;
12232;SDS011;6179;51.748;8.728;2024-01-15T11:25:50;11.43;;;2.90;;
12232;SDS011;6179;51.748;8.728;2024-01-15T11:43:56;7.13;;;3.90;;
12232;SDS011;6179;51.748;8.728;2024-01-15T11:56:09;6.27;;;2.47;;
12232;SDS011;6179;51.748;8.728;2024-01-15T12:02:17;14.77;;;4.57;;
12232;SDS011;6179;51.748;8.728;2024-01-15T12:08:21;11.90;;;4.47;;
12232;SDS011;6179;51.748;8.728;2024-01-15T12:14:23;5.77;;;3.17;;
12232;SDS011;6179;51.748;8.728;2024-01-15T12:20:25;8.87;;;2.47;;
12232;SDS011;6179;51.748;8.728;2024-01-15T12:26:27;3.17;;;2.23;;
12232;SDS011;6179;51.748;8.728;2024-01-15T12:32:28;2.20;;;1.77;;
12232;SDS011;6179;51.748;8.728;2024-01-15T12:38:29;3.50;;;1.30;;
12232;SDS011;6179;51.748;8.728;2024-01-15T12:44:30;7.60;;;1.17;;
12232;SDS011;6179;51.748;8.728;2024-01-15T12:50:33;4.07;;;2.40;;
12232;SDS011;6179;51.748;8.728;2024-01-15T12:56:35;4.20;;;1.60;;
12232;SDS011;6179;51.748;8.728;2024-01-15T13:02:36;18.73;;;2.40;;
12232;SDS011;6179;51.748;8.728;2024-01-15T13:08:36;9.17;;;1.63;;
12232;SDS011;6179;51.748;8.728;2024-01-15T13:14:37;2.80;;;2.13;;
12232;SDS011;6179;51.748;8.728;2024-01-15T13:20:38;10.17;;;3.47;;
12232;SDS011;6179;51.748;8.728;2024-01-15T13:26:39;5.43;;;2.83;;
12232;SDS011;6179;51.748;8.728;2024-01-15T13:32:40;5.70;;;2.83;;
12232;SDS011;6179;51.748;8.728;2024-01-15T13:38:41;2.10;;;1.90;;
12232;SDS011;6179;51.748;8.728;2024-01-15T13:44:42;6.50;;;2.40;;
12232;SDS011;6179;51.748;8.728;2024-01-15T13:50:42;6.80;;;2.67;;
12232;SDS011;6179;51.748;8.728;2024-01-15T13:56:43;4.13;;;2.23;;
12232;SDS011;6179;51.748;8.728;2024-01-15T14:02:44;3.63;;;1.80;;
12232;SDS011;6179;51.748;8.728;2024-01-15T14:08:45;8.80;;;2.57;;
12232;SDS011;6179;51.748;8.728;2024-01-15T14:14:46;19.07;;;1.90;;
12232;SDS011;6179;51.748;8.728;2024-01-15T14:20:47;1.93;;;1.40;;
12232;SDS011;6179;51.748;8.728;2024-01-15T14:26:48;3.60;;;1.70;;
12232;SDS011;6179;51.748;8.728;2024-01-15T14:32:49;2.57;;;2.33;;
12232;SDS011;6179;51.748;8.728;2024-01-15T14:38:50;2.90;;;2.57;;
12232;SDS011;6179;51.748;8.728;2024-01-15T14:44:51;3.47;;;2.83;;
12232;SDS011;6179;51.748;8.728;2024-01-15T14:50:51;6.73;;;2.33;;
12232;SDS011;6179;51.748;8.728;2024-01-15T14:56:52;10.73;;;2.27;;
12232;SDS011;6179;51.748;8.728;2024-01-15T15:02:53;2.77;;;2.57;;
12232;SDS011;6179;51.748;8.728;2024-01-15T15:08:54;6.10;;;2.00;;
12232;SDS011;6179;51.748;8.728;2024-01-15T15:14:55;3.20;;;2.90;;
12232;SDS011;6179;51.748;8.728;2024-01-15T15:20:56;8.83;;;0.90;;
12232;SDS011;6179;51.748;8.728;2024-01-15T15:26:57;1.80;;;1.00;;
12232;SDS011;6179;51.748;8.728;2024-01-15T15:32:57;1.00;;;0.90;;
12232;SDS011;6179;51.748;8.728;2024-01-15T15:38:58;2.87;;;0.60;;
12232;SDS011;6179;51.748;8.728;2024-01-15T15:44:59;5.20;;;0.60;;
12232;SDS011;6179;51.748;8.728;2024-01-15T15:51:00;5.00;;;0.47;;
12232;SDS011;6179;51.748;8.728;2024-01-15T15:57:03;1.17;;;0.80;;
12232;SDS011;6179;51.748;8.728;2024-01-15T16:03:04;3.30;;;1.07;;
12232;SDS011;6179;51.748;8.728;2024-01-15T16:09:04;1.97;;;0.70;;
12232;SDS011;6179;51.748;8.728;2024-01-15T16:15:21;1.80;;;0.87;;
12232;SDS011;6179;51.748;8.728;2024-01-15T16:21:23;4.33;;;0.97;;
12232;SDS011;6179;51.748;8.728;2024-01-15T16:27:24;3.97;;;1.17;;
12232;SDS011;6179;51.748;8.728;2024-01-15T16:33:26;1.27;;;0.80;;
12232;SDS011;6179;51.748;8.728;2024-01-15T16:39:27;9.10;;;0.90;;
12232;SDS011;6179;51.748;8.728;2024-01-15T16:45:28;1.80;;;0.77;;
12232;SDS011;6179;51.748;8.728;2024-01-15T16:51:29;2.20;;;1.07;;
12232;SDS011;6179;51.748;8.728;2024-01-15T16:57:30;0.90;;;0.90;;
12232;SDS011;6179;51.748;8.728;2024-01-15T17:03:31;3.90;;;1.57;;
12232;SDS011;6179;51.748;8.728;2024-01-15T17:09:32;11.00;;;1.23;;
12232;SDS011;6179;51.748;8.728;2024-01-15T17:15:32;5.37;;;1.00;;
12232;SDS011;6179;51.748;8.728;2024-01-15T17:21:33;3.13;;;0.80;;
12232;SDS011;6179;51.748;8.728;2024-01-15T17:27:34;2.27;;;1.10;;
12232;SDS011;6179;51.748;8.728;2024-01-15T17:33:35;5.10;;;2.63;;
12232;SDS011;6179;51.748;8.728;2024-01-15T17:39:35;1.90;;;1.00;;
12232;SDS011;6179;51.748;8.728;2024-01-15T17:45:37;2.73;;;0.63;;
12232;SDS011;6179;51.748;8.728;2024-01-15T17:51:38;4.77;;;0.93;;
12232;SDS011;6179;51.748;8.728;2024-01-15T17:57:39;1.90;;;0.87;;
12232;SDS011;6179;51.748;8.728;2024-01-15T18:03:40;2.00;;;1.03;;
12232;SDS011;6179;51.748;8.728;2024-01-15T18:09:40;19.37;;;1.23;;
12232;SDS011;6179;51.748;8.728;2024-01-15T18:15:41;2.20;;;1.03;;
12232;SDS011;6179;51.748;8.728;2024-01-15T18:21:42;6.13;;;1.10;;
12232;SDS011;6179;51.748;8.728;2024-01-15T18:27:43;2.70;;;0.67;;
12232;SDS011;6179;51.748;8.728;2024-01-15T18:33:43;2.30;;;0.80;;
12232;SDS011;6179;51.748;8.728;2024-01-15T18:39:44;3.03;;;0.80;;
12232;SDS011;6179;51.748;8.728;2024-01-15T18:45:45;11.83;;;1.43;;
12232;SDS011;6179;51.748;8.728;2024-01-15T18:51:46;7.97;;;1.13;;
12232;SDS011;6179;51.748;8.728;2024-01-15T18:57:53;15.23;;;1.43;;
12232;SDS011;6179;51.748;8.728;2024-01-15T19:03:55;4.13;;;2.60;;
12232;SDS011;6179;51.748;8.728;2024-01-15T19:09:57;5.87;;;3.37;;
12232;SDS011;6179;51.748;8.728;2024-01-15T19:15:57;6.57;;;4.97;;
12232;SDS011;6179;51.748;8.728;2024-01-15T19:21:58;5.47;;;4.50;;
12232;SDS011;6179;51.748;8.728;2024-01-15T19:27:59;18.23;;;6.43;;
12232;SDS011;6179;51.748;8.728;2024-01-15T19:34:03;20.03;;;7.80;;
12232;SDS011;6179;51.748;8.728;2024-01-15T19:40:04;11.57;;;7.00;;
12232;SDS011;6179;51.748;8.728;2024-01-15T19:46:06;18.70;;;5.27;;
12232;SDS011;6179;51.748;8.728;2024-01-15T19:52:08;5.70;;;3.50;;
12232;SDS011;6179;51.748;8.728;2024-01-15T19:58:09;4.37;;;3.27;;
12232;SDS011;6179;51.748;8.728;2024-01-15T20:04:10;9.50;;;4.10;;
12232;SDS011;6179;51.748;8.728;2024-01-15T20:10:10;5.90;;;3.10;;
12232;SDS011;6179;51.748;8.728;2024-01-15T20:16:12;4.60;;;2.60;;
12232;SDS011;6179;51.748;8.728;2024-01-15T20:22:13;7.30;;;2.43;;
12232;SDS011;6179;51.748;8.728;2024-01-15T20:28:14;2.40;;;1.47;;
12232;SDS011;6179;51.748;8.728;2024-01-15T20:34:15;4.40;;;2.00;;
12232;SDS011;6179;51.748;8.728;2024-01-15T20:40:16;0.90;;;0.90;;
12232;SDS011;6179;51.748;8.728;2024-01-15T20:46:16;3.80;;;0.80;;
12232;SDS011;6179;51.748;8.728;2024-01-15T20:52:17;3.47;;;0.83;;
12232;SDS011;6179;51.748;8.728;2024-01-15T20:58:21;13.70;;;1.27;;
12232;SDS011;6179;51.748;8.728;2024-01-15T21:04:26;2.43;;;1.67;;
12232;SDS011;6179;51.748;8.728;2024-01-15T21:10:26;4.10;;;1.00;;
12232;SDS011;6179;51.748;8.728;2024-01-15T21:16:27;20.43;;;1.07;;
12232;SDS011;6179;51.748;8.728;2024-01-15T21:22:29;3.47;;;0.50;;
12232;SDS011;6179;51.748;8.728;2024-01-15T21:28:29;0.40;;;0.40;;
12232;SDS011;6179;51.748;8.728;2024-01-15T21:34:31;2.97;;;0.70;;
12232;SDS011;6179;51.748;8.728;2024-01-15T21:40:32;2.60;;;1.40;;
12232;SDS011;6179;51.748;8.728;2024-01-15T21:46:33;3.53;;;1.43;;
12232;SDS011;6179;51.748;8.728;2024-01-15T21:52:35;10.87;;;2.30;;
12232;SDS011;6179;51.748;8.728;2024-01-15T21:58:36;4.13;;;1.07;;
12232;SDS011;6179;51.748;8.728;2024-01-15T22:04:38;2.10;;;0.80;;
12232;SDS011;6179;51.748;8.728;2024-01-15T22:10:39;1.10;;;0.60;;
12232;SDS011;6179;51.748;8.728;2024-01-15T22:16:40;0.70;;;0.70;;
12232;SDS011;6179;51.748;8.728;2024-01-15T22:22:41;6.90;;;1.20;;
12232;SDS011;6179;51.748;8.728;2024-01-15T22:28:42;8.33;;;1.93;;
12232;SDS011;6179;51.748;8.728;2024-01-15T22:34:43;5.13;;;1.40;;
12232;SDS011;6179;51.748;8.728;2024-01-15T22:40:43;5.93;;;1.63;;
12232;SDS011;6179;51.748;8.728;2024-01-15T22:46:44;4.43;;;1.03;;
12232;SDS011;6179;51.748;8.728;2024-01-15T22:52:45;4.03;;;1.27;;
12232;SDS011;6179;51.748;8.728;2024-01-15T22:58:46;3.37;;;1.80;;
12232;SDS011;6179;51.748;8.728;2024-01-15T23:04:47;1.57;;;1.40;;
12232;SDS011;6179;51.748;8.728;2024-01-15T23:10:47;11.80;;;1.60;;
12232;SDS011;6179;51.748;8.728;2024-01-15T23:16:48;3.23;;;1.07;;
12232;SDS011;6179;51.748;8.728;2024-01-15T23:22:49;1.77;;;1.20;;
12232;SDS011;6179;51.748;8.728;2024-01-15T23:28:50;6.00;;;0.70;;
12232;SDS011;6179;51.748;8.728;2024-01-15T23:34:51;5.37;;;0.90;;
12232;SDS011;6179;51.748;8.728;2024-01-15T23:40:51;4.87;;;1.07;;
12232;SDS011;6179;51.748;8.728;2024-01-15T23:46:52;9.43;;;0.83;;
12232;SDS011;6179;51.748;8.728;2024-01-15T23:52:53;1.60;;;0.90;;
12232;SDS011;6179;51.748;8.728;2024-01-15T23:58:54;1.57;;;0.83;;
